Time;durP1;ratioP1;P1;durP2;ratioP2;P2;SDS_P1;SDS_P2;PMS_P1;PMS_P2;Temp;Humidity;BMP_temperature;BMP_pressure;BME280_temperature;BME280_humidity;BME280_pressure;Samples;Min_cycle;Max_cycle;Signal;HPM_P1;HPM_P2
2022/12/16 00:00:28;;;;;;;18.73;11.20;;;-0.10;99.90;;;;;;5051379;28;20114;-69
2022/12/16 00:02:53;;;;;;;17.67;9.70;;;0.00;99.90;;;;;;5051221;28;20045;-68
2022/12/16 00:05:19;;;;;;;18.08;10.25;;;0.00;99.90;;;;;;5035001;28;20049;-68
2022/12/16 00:07:48;;;;;;;17.50;9.18;;;0.00;99.90;;;;;;5051447;28;20035;-69
2022/12/16 00:10:14;;;;;;;24.48;10.20;;;0.00;99.90;;;;;;5051629;28;20029;-68
2022/12/16 00:12:40;;;;;;;18.80;9.73;;;0.00;99.90;;;;;;5051106;28;20404;-69
2022/12/16 00:15:06;;;;;;;20.75;9.45;;;0.00;99.90;;;;;;5051191;28;20086;-69
2022/12/16 00:17:32;;;;;;;15.57;9.40;;;0.00;99.90;;;;;;5034559;28;20044;-68
2022/12/16 00:19:57;;;;;;;16.38;9.68;;;0.00;99.90;;;;;;5051155;28;20036;-69
2022/12/16 00:22:23;;;;;;;21.45;10.63;;;0.10;99.90;;;;;;5051308;28;20037;-69
2022/12/16 00:24:48;;;;;;;17.33;10.00;;;0.10;99.90;;;;;;5052313;28;20495;-68
2022/12/16 00:27:14;;;;;;;19.05;8.63;;;0.00;99.90;;;;;;5056304;28;20045;-69
2022/12/16 00:29:40;;;;;;;19.77;11.07;;;0.00;99.90;;;;;;5038235;28;20037;-69
2022/12/16 00:32:05;;;;;;;22.02;9.60;;;0.00;99.90;;;;;;5054971;28;20033;-69
2022/12/16 00:34:32;;;;;;;16.58;9.55;;;0.00;99.90;;;;;;5056098;28;20483;-68
2022/12/16 00:36:58;;;;;;;17.38;9.68;;;0.00;99.90;;;;;;5054915;28;20052;-69
2022/12/16 00:39:24;;;;;;;15.23;8.70;;;0.00;99.90;;;;;;5054744;28;20416;-69
2022/12/16 00:41:50;;;;;;;12.00;8.05;;;0.00;99.90;;;;;;5054802;28;20033;-68
2022/12/16 00:44:15;;;;;;;18.92;9.88;;;0.00;99.90;;;;;;5056294;28;20056;-69
2022/12/16 00:46:41;;;;;;;17.27;9.68;;;0.00;99.90;;;;;;5055749;28;20045;-69
2022/12/16 00:49:07;;;;;;;17.10;10.63;;;0.40;99.90;;;;;;5055813;28;20127;-69
2022/12/16 00:51:32;;;;;;;14.73;10.05;;;0.00;99.90;;;;;;5055848;28;20433;-69
2022/12/16 00:53:58;;;;;;;17.88;9.75;;;-0.10;99.90;;;;;;5055921;28;20094;-69
2022/12/16 00:56:24;;;;;;;16.90;9.35;;;-0.10;99.90;;;;;;5054689;28;20372;-69
2022/12/16 00:58:50;;;;;;;18.75;10.63;;;-0.10;99.90;;;;;;5055437;28;20044;-68
2022/12/16 01:01:15;;;;;;;15.75;9.45;;;-0.20;99.90;;;;;;5054321;28;20464;-69
2022/12/16 01:03:41;;;;;;;16.38;9.43;;;-0.20;99.90;;;;;;5054174;28;20047;-69
2022/12/16 01:06:15;;;;;;;20.35;10.30;;;-0.20;99.90;;;;;;5055377;28;20033;-69
2022/12/16 01:08:47;;;;;;;14.10;8.93;;;-0.20;99.90;;;;;;5053934;28;20128;-69
2022/12/16 01:11:15;;;;;;;15.63;9.23;;;-0.20;99.90;;;;;;5054369;28;20530;-68
2022/12/16 01:13:40;;;;;;;14.50;8.60;;;-0.20;99.90;;;;;;5054055;28;20462;-68
2022/12/16 01:16:06;;;;;;;14.55;9.07;;;-0.20;99.90;;;;;;5055424;28;20048;-69
2022/12/16 01:18:32;;;;;;;14.00;9.80;;;-0.20;99.90;;;;;;5054981;28;20033;-68
2022/12/16 01:21:05;;;;;;;14.93;9.20;;;-0.10;99.90;;;;;;5053860;28;20041;-68
2022/12/16 01:23:32;;;;;;;16.85;9.68;;;-0.10;99.90;;;;;;5055294;28;20041;-68
2022/12/16 01:25:59;;;;;;;19.40;8.95;;;-0.10;99.90;;;;;;5054022;28;20084;-69
2022/12/16 01:28:26;;;;;;;13.98;8.70;;;-0.10;99.90;;;;;;5054001;28;20583;-68
2022/12/16 01:31:00;;;;;;;17.80;9.73;;;-0.10;99.90;;;;;;5053747;28;20127;-68
2022/12/16 01:33:31;;;;;;;16.90;10.30;;;0.90;99.90;;;;;;5055197;28;20044;-69
2022/12/16 01:36:06;;;;;;;18.02;10.57;;;-0.10;99.90;;;;;;5036217;28;20052;-69
2022/12/16 01:38:32;;;;;;;18.40;9.95;;;0.00;99.90;;;;;;5053446;28;20049;-69
2022/12/16 01:40:57;;;;;;;17.23;9.27;;;0.00;99.90;;;;;;5054679;28;20052;-69
2022/12/16 01:43:29;;;;;;;20.27;10.68;;;0.00;99.90;;;;;;5054794;28;20400;-69
2022/12/16 01:46:03;;;;;;;17.27;10.43;;;0.00;99.90;;;;;;5054727;28;20080;-68
2022/12/16 01:48:51;;;;;;;20.13;10.00;;;0.00;99.90;;;;;;5036691;28;20043;-68
2022/12/16 01:51:34;;;;;;;17.15;8.68;;;0.00;99.90;;;;;;5054461;28;20540;-68
2022/12/16 01:54:26;;;;;;;21.80;8.98;;;0.10;99.90;;;;;;5054657;28;20110;-69
2022/12/16 01:57:01;;;;;;;15.93;8.93;;;0.10;99.90;;;;;;5028683;28;20488;-69
2022/12/16 01:59:30;;;;;;;11.73;8.00;;;0.00;99.90;;;;;;5036535;28;20063;-69
2022/12/16 02:01:58;;;;;;;15.57;8.25;;;0.10;99.90;;;;;;5054525;28;20041;-68
2022/12/16 02:04:24;;;;;;;14.13;8.98;;;0.10;99.90;;;;;;5036385;28;20069;-69
2022/12/16 02:06:50;;;;;;;15.68;8.68;;;0.10;99.90;;;;;;5054351;28;20040;-69
2022/12/16 02:09:16;;;;;;;16.02;8.75;;;0.10;99.90;;;;;;5052909;28;20132;-68
2022/12/16 02:12:04;;;;;;;16.13;10.00;;;0.10;99.90;;;;;;5036394;28;20458;-68
2022/12/16 02:14:54;;;;;;;12.70;9.20;;;0.10;99.90;;;;;;5052816;28;20553;-69
2022/12/16 02:17:32;;;;;;;12.05;8.00;;;0.10;99.90;;;;;;5052792;28;20037;-68
2022/12/16 02:20:09;;;;;;;20.88;9.00;;;0.10;99.90;;;;;;5054198;28;20037;-68
2022/12/16 02:23:02;;;;;;;12.32;8.95;;;0.90;99.90;;;;;;5052921;28;20124;-68
2022/12/16 02:25:33;;;;;;;18.00;10.52;;;0.20;99.90;;;;;;5052800;28;20040;-69
2022/12/16 02:28:02;;;;;;;;;;;0.20;99.90;;;;;;5054556;28;20044;-67
2022/12/16 02:31:12;;;;;;;13.20;7.97;;;0.20;99.90;;;;;;5052761;28;19920;-67
2022/12/16 02:33:45;;;;;;;12.50;7.25;;;0.20;99.90;;;;;;5036940;28;20088;-68
2022/12/16 02:36:20;;;;;;;13.95;9.10;;;1.10;99.90;;;;;;5052444;28;20366;-67
2022/12/16 02:38:58;;;;;;;14.48;10.35;;;0.20;99.90;;;;;;5052407;28;20507;-67
2022/12/16 02:41:32;;;;;;;17.73;9.13;;;0.20;99.90;;;;;;5052398;28;20049;-67
2022/12/16 02:44:04;;;;;;;12.38;7.90;;;0.20;99.90;;;;;;5052261;28;20048;-67
2022/12/16 02:46:33;;;;;;;12.32;7.60;;;0.20;99.90;;;;;;5052337;28;20080;-67
2022/12/16 02:49:07;;;;;;;18.20;8.90;;;0.20;99.90;;;;;;5035890;28;20504;-69
2022/12/16 02:51:36;;;;;;;18.77;8.63;;;0.30;99.90;;;;;;5052016;28;20036;-67
2022/12/16 02:54:03;;;;;;;14.48;7.45;;;0.30;99.90;;;;;;5035604;28;20040;-67
2022/12/16 02:57:06;;;;;;;12.00;7.32;;;0.30;99.90;;;;;;5053461;28;20037;-67
2022/12/16 03:00:11;;;;;;;14.27;7.13;;;0.30;99.90;;;;;;5052095;28;20041;-67
2022/12/16 03:03:07;;;;;;;16.23;7.43;;;0.40;99.90;;;;;;5043549;28;20126;-67
2022/12/16 03:05:37;;;;;;;10.18;7.18;;;0.40;99.90;;;;;;5052030;28;20396;-67
2022/12/16 03:08:08;;;;;;;14.27;7.32;;;0.40;99.90;;;;;;5035477;28;20045;-67
2022/12/16 03:10:43;;;;;;;10.75;6.55;;;0.40;99.90;;;;;;5051877;28;20084;-67
2022/12/16 03:13:11;;;;;;;9.82;6.15;;;0.50;99.90;;;;;;5051873;28;20041;-67
2022/12/16 03:15:39;;;;;;;13.70;7.43;;;0.50;99.90;;;;;;5053226;28;20048;-67
2022/12/16 03:18:08;;;;;;;22.30;6.75;;;0.50;99.90;;;;;;5051963;28;20041;-67
2022/12/16 03:21:04;;;;;;;11.68;6.03;;;0.50;99.90;;;;;;5035350;28;20495;-67
2022/12/16 03:23:37;;;;;;;11.90;6.18;;;0.50;99.90;;;;;;5050691;28;20049;-67
2022/12/16 03:26:09;;;;;;;9.90;5.97;;;0.50;99.90;;;;;;5051639;28;20041;-67
2022/12/16 03:28:42;;;;;;;12.10;6.85;;;0.50;99.90;;;;;;5051707;28;20041;-67
2022/12/16 03:31:22;;;;;;;11.52;6.45;;;0.50;99.90;;;;;;5035083;28;20049;-67
2022/12/16 03:34:15;;;;;;;11.80;5.87;;;0.50;99.90;;;;;;5051760;28;20522;-67
2022/12/16 03:36:45;;;;;;;8.30;5.40;;;0.60;99.90;;;;;;5051403;28;20522;-67
2022/12/16 03:39:13;;;;;;;11.43;6.77;;;0.60;99.90;;;;;;5053256;28;20392;-67
2022/12/16 03:41:42;;;;;;;11.55;7.65;;;0.60;99.90;;;;;;5051980;28;20573;-67
2022/12/16 03:44:08;;;;;;;16.02;6.65;;;0.60;99.90;;;;;;5034886;28;20446;-67
2022/12/16 03:46:34;;;;;;;13.35;7.20;;;0.60;99.90;;;;;;5053071;28;20119;-68
2022/12/16 03:49:00;;;;;;;15.15;7.65;;;0.60;99.90;;;;;;5051412;28;20470;-67
2022/12/16 03:51:25;;;;;;;9.75;6.75;;;1.40;99.90;;;;;;5035028;28;20049;-67
2022/12/16 03:53:51;;;;;;;11.43;7.00;;;0.50;99.90;;;;;;5051712;28;20393;-67
2022/12/16 03:56:17;;;;;;;14.43;7.07;;;0.50;99.90;;;;;;5051411;28;20044;-67
2022/12/16 03:58:42;;;;;;;16.73;8.18;;;0.50;99.90;;;;;;5035213;28;20131;-67
2022/12/16 04:01:09;;;;;;;16.95;7.63;;;0.50;99.90;;;;;;5054825;28;20080;-67
2022/12/16 04:03:36;;;;;;;13.48;7.93;;;0.50;99.90;;;;;;5055311;28;20426;-67
2022/12/16 04:06:02;;;;;;;16.05;7.38;;;0.50;99.90;;;;;;5038839;28;20518;-67
2022/12/16 04:08:28;;;;;;;15.25;6.35;;;0.50;99.90;;;;;;5055529;28;20099;-67
2022/12/16 04:25:34;;;;;;;15.35;7.53;;;0.50;99.90;;;;;;5054868;28;20435;-67
2022/12/16 04:28:00;;;;;;;16.77;7.93;;;0.50;99.90;;;;;;5038101;28;20041;-67
2022/12/16 04:30:27;;;;;;;14.80;6.80;;;0.50;99.90;;;;;;5038195;28;20044;-67
